Time;durP1;ratioP1;P1;durP2;ratioP2;P2;SDS_P1;SDS_P2;PMS_P1;PMS_P2;Temp;Humidity;BMP_temperature;BMP_pressure;BME280_temperature;BME280_humidity;BME280_pressure;Samples;Min_cycle;Max_cycle;Signal;HPM_P1;HPM_P2
2024/03/20 00:03:44;;;;;;;4.60;2.17;;;10.50;99.90;;;;;;8392960;28;20595;-76
2024/03/20 00:07:45;;;;;;;;;;;10.40;99.90;;;;;;8380156;28;20523;-76
2024/03/20 00:11:49;;;;;;;;;;;10.40;99.90;;;;;;8389256;28;19924;-76
2024/03/20 00:15:49;;;;;;;;;;;10.40;99.90;;;;;;8389250;28;19986;-76
2024/03/20 00:19:50;;;;;;;;;;;10.40;99.90;;;;;;8377232;28;19975;-75
2024/03/20 00:23:52;;;;;;;;;;;10.40;99.90;;;;;;8401311;28;19920;-76
2024/03/20 00:27:53;;;;;;;;;;;10.40;99.90;;;;;;8386092;28;20294;-76
2024/03/20 00:31:56;;;;;;;;;;;10.40;99.90;;;;;;8383022;28;19994;-76
2024/03/20 00:35:57;;;;;;;;;;;10.30;99.90;;;;;;8399039;28;19924;-76
2024/03/20 00:45:03;;;;;;;;;;;10.20;99.90;;;;;;8424457;28;19926;-76
2024/03/20 00:49:04;;;;;;;;;;;10.20;99.90;;;;;;8398515;28;20367;-76
2024/03/20 00:53:05;;;;;;;;;;;10.20;99.90;;;;;;8390619;28;20326;-75
2024/03/20 00:57:06;;;;;;;;;;;10.10;99.90;;;;;;8400570;28;19934;-76
2024/03/20 01:01:07;;;;;;;;;;;10.00;99.90;;;;;;8397304;28;20340;-76
2024/03/20 01:05:09;;;;;;;;;;;10.00;99.90;;;;;;8409979;28;20405;-76
2024/03/20 01:09:10;;;;;;;;;;;10.00;99.90;;;;;;8407637;28;19927;-76
2024/03/20 01:13:11;;;;;;;;;;;10.00;99.90;;;;;;8411733;28;19974;-76
2024/03/20 01:17:15;;;;;;;;;;;10.00;99.90;;;;;;8395020;28;19920;-76
2024/03/20 01:21:15;;;;;;;;;;;10.00;99.90;;;;;;8406597;28;19920;-76
2024/03/20 01:25:17;;;;;;;;;;;10.00;99.90;;;;;;8412343;28;19920;-76
2024/03/20 01:29:18;;;;;;;;;;;10.00;99.90;;;;;;8406740;28;20010;-76
2024/03/20 01:33:19;;;;;;;;;;;10.00;99.90;;;;;;8413993;28;20019;-76
2024/03/20 01:37:20;;;;;;;;;;;10.00;99.90;;;;;;8399735;28;19920;-76
2024/03/20 01:41:20;;;;;;;;;;;9.90;99.90;;;;;;8406474;28;19920;-76
2024/03/20 01:45:21;;;;;;;;;;;9.80;99.90;;;;;;8401162;28;20015;-75
2024/03/20 01:49:43;;;;;;;;;;;9.70;99.90;;;;;;8394540;28;19919;-75
2024/03/20 01:53:43;;;;;;;;;;;9.60;99.90;;;;;;8396915;28;20329;-76
2024/03/20 01:57:44;;;;;;;5.60;2.85;;;9.60;99.90;;;;;;8405472;28;20220;-76
2024/03/20 02:01:45;;;;;;;5.20;2.70;;;9.60;99.90;;;;;;8389785;28;20054;-76
2024/03/20 02:05:46;;;;;;;6.45;2.50;;;9.50;99.90;;;;;;8402858;28;20048;-76
2024/03/20 02:09:47;;;;;;;5.90;2.70;;;9.60;99.90;;;;;;8377123;28;20044;-76
2024/03/20 02:13:53;;;;;;;8.45;2.70;;;9.50;99.90;;;;;;8398589;28;20092;-76
2024/03/20 02:17:55;;;;;;;5.22;2.83;;;9.50;99.90;;;;;;8370383;28;20415;-76
2024/03/20 02:21:56;;;;;;;4.55;2.30;;;9.50;99.90;;;;;;8385776;28;20062;-75
2024/03/20 02:25:57;;;;;;;4.80;2.40;;;9.50;99.90;;;;;;8378640;28;20054;-76
2024/03/20 02:29:58;;;;;;;6.13;2.65;;;9.40;99.90;;;;;;8395445;28;20044;-76
2024/03/20 02:33:59;;;;;;;4.50;2.33;;;9.30;99.90;;;;;;8395941;28;20112;-76
2024/03/20 02:38:00;;;;;;;6.55;2.65;;;9.30;99.90;;;;;;8377361;28;20048;-76
2024/03/20 02:42:00;;;;;;;6.43;2.80;;;9.20;99.90;;;;;;8392297;28;20079;-76
2024/03/20 02:46:01;;;;;;;5.25;2.88;;;9.20;99.90;;;;;;8377306;28;20123;-76
2024/03/20 02:50:02;;;;;;;5.28;2.80;;;9.10;99.90;;;;;;8376092;28;20058;-76
2024/03/20 02:54:03;;;;;;;8.95;3.08;;;9.00;99.90;;;;;;8391006;28;20056;-76
2024/03/20 02:58:04;;;;;;;4.45;2.42;;;9.00;99.90;;;;;;8390375;28;20064;-76
2024/03/20 03:02:06;;;;;;;6.13;2.63;;;9.00;99.90;;;;;;8393163;28;20044;-76
2024/03/20 03:06:06;;;;;;;5.00;2.95;;;9.00;99.90;;;;;;8384046;28;20097;-76
2024/03/20 03:10:09;;;;;;;7.80;2.83;;;8.90;99.90;;;;;;8400773;28;20515;-76
2024/03/20 03:14:12;;;;;;;4.97;2.60;;;8.90;99.90;;;;;;8404988;28;20135;-76
2024/03/20 03:18:13;;;;;;;6.57;3.13;;;8.90;99.90;;;;;;8418537;28;20512;-76
2024/03/20 03:22:14;;;;;;;7.00;3.40;;;8.90;99.90;;;;;;8385486;28;20070;-76
2024/03/20 03:26:15;;;;;;;4.90;2.90;;;8.80;99.90;;;;;;8406967;28;20052;-76
2024/03/20 03:30:16;;;;;;;7.20;2.88;;;8.80;99.90;;;;;;8402733;28;20052;-76
2024/03/20 03:34:17;;;;;;;6.45;3.15;;;8.80;99.90;;;;;;8407001;28;20390;-76
2024/03/20 03:38:18;;;;;;;4.90;2.78;;;8.80;99.90;;;;;;8387913;28;20116;-76
2024/03/20 03:42:20;;;;;;;6.13;3.05;;;8.70;99.90;;;;;;8384256;28;20056;-75
2024/03/20 03:46:21;;;;;;;8.63;3.35;;;8.70;99.90;;;;;;8385002;28;20070;-76
2024/03/20 03:50:22;;;;;;;7.10;3.47;;;8.70;99.90;;;;;;8397309;28;20063;-76
2024/03/20 03:54:23;;;;;;;7.15;3.38;;;8.70;99.90;;;;;;8382197;28;20503;-76
2024/03/20 03:58:24;;;;;;;7.18;4.03;;;8.70;99.90;;;;;;8398189;28;20052;-76
2024/03/20 04:02:27;;;;;;;6.75;3.55;;;8.70;99.90;;;;;;8397507;28;20062;-76
2024/03/20 04:06:28;;;;;;;6.80;3.33;;;8.60;99.90;;;;;;8381003;28;20051;-76
2024/03/20 04:10:29;;;;;;;6.63;3.88;;;8.60;99.90;;;;;;8399783;28;20056;-76
2024/03/20 04:14:30;;;;;;;6.13;3.60;;;8.60;99.90;;;;;;8403815;28;20180;-76
2024/03/20 04:18:31;;;;;;;6.35;3.70;;;8.60;99.90;;;;;;8386798;28;20096;-76
2024/03/20 04:22:32;;;;;;;6.30;3.92;;;8.50;99.90;;;;;;8372949;28;20040;-76
2024/03/20 04:26:33;;;;;;;7.90;3.95;;;8.50;99.90;;;;;;8399415;28;20045;-76
2024/03/20 04:30:34;;;;;;;6.35;3.78;;;8.50;99.90;;;;;;8418113;28;20050;-76
2024/03/20 04:34:36;;;;;;;7.40;3.92;;;8.50;99.90;;;;;;8403450;28;20083;-76
2024/03/20 04:38:59;;;;;;;6.97;3.60;;;8.40;99.90;;;;;;8378295;28;20048;-76
2024/03/20 04:43:00;;;;;;;7.28;4.13;;;8.40;99.90;;;;;;8397140;28;20048;-76
2024/03/20 04:47:01;;;;;;;7.30;4.10;;;8.40;99.90;;;;;;8374979;28;20415;-76
2024/03/20 04:51:02;;;;;;;7.70;4.60;;;8.40;99.90;;;;;;8404436;28;20147;-76
2024/03/20 04:55:07;;;;;;;7.65;4.28;;;8.40;99.90;;;;;;8396752;28;20064;-76
2024/03/20 04:59:08;;;;;;;6.85;3.90;;;8.40;99.90;;;;;;8421426;28;20134;-76
2024/03/20 05:03:11;;;;;;;6.53;4.05;;;8.40;99.90;;;;;;8395117;28;20062;-76
2024/03/20 05:07:12;;;;;;;7.85;4.22;;;8.40;99.90;;;;;;8402472;28;20044;-76
2024/03/20 05:11:13;;;;;;;6.70;3.97;;;8.40;99.90;;;;;;8397886;28;20645;-76
2024/03/20 05:15:14;;;;;;;8.20;4.97;;;8.40;99.90;;;;;;8380134;28;20063;-76
2024/03/20 05:19:15;;;;;;;6.57;4.15;;;8.40;99.90;;;;;;8414536;28;20139;-76
2024/03/20 05:23:16;;;;;;;6.75;3.90;;;8.40;99.90;;;;;;8398137;28;20104;-76
2024/03/20 05:27:18;;;;;;;6.60;3.55;;;8.30;99.90;;;;;;8387916;28;20119;-76
2024/03/20 05:31:29;;;;;;;6.10;3.40;;;8.30;99.90;;;;;;8395204;28;20123;-76
2024/03/20 05:35:30;;;;;;;6.35;3.38;;;8.30;99.90;;;;;;8396347;28;20460;-76
2024/03/20 05:39:31;;;;;;;5.90;3.42;;;8.30;99.90;;;;;;8387262;28;20052;-75
2024/03/20 05:43:32;;;;;;;6.43;3.90;;;8.30;99.90;;;;;;8391592;28;20526;-76
2024/03/20 05:47:34;;;;;;;7.57;4.03;;;8.20;99.90;;;;;;8394853;28;20046;-76
2024/03/20 05:51:34;;;;;;;7.50;4.10;;;8.20;99.90;;;;;;8378120;28;20550;-76
2024/03/20 05:55:35;;;;;;;7.47;4.00;;;8.20;99.90;;;;;;8395853;28;20504;-76
2024/03/20 05:59:37;;;;;;;7.95;4.18;;;8.10;99.90;;;;;;8397603;28;20056;-76
2024/03/20 06:03:38;;;;;;;9.90;4.47;;;8.10;99.90;;;;;;8374297;28;20057;-76
2024/03/20 06:07:39;;;;;;;7.75;5.05;;;8.10;99.90;;;;;;8398184;28;20074;-75
2024/03/20 06:11:41;;;;;;;11.30;4.90;;;8.10;99.90;;;;;;8405666;28;20563;-76
2024/03/20 06:15:42;;;;;;;7.93;4.43;;;8.10;99.90;;;;;;8392793;28;20399;-76
2024/03/20 06:19:43;;;;;;;7.75;4.60;;;8.20;99.90;;;;;;8401913;28;20121;-76
2024/03/20 06:23:44;;;;;;;9.20;4.40;;;8.20;99.90;;;;;;8379334;28;20049;-76
2024/03/20 06:27:45;;;;;;;6.53;3.97;;;8.20;99.90;;;;;;8386898;28;20054;-76
2024/03/20 06:31:46;;;;;;;7.57;4.45;;;8.30;99.90;;;;;;8391416;28;20044;-76
2024/03/20 06:35:47;;;;;;;7.30;4.55;;;8.30;99.90;;;;;;8392242;28;20562;-76
2024/03/20 06:39:48;;;;;;;8.52;4.47;;;8.40;99.90;;;;;;8386096;28;20442;-76
2024/03/20 06:43:50;;;;;;;6.93;4.30;;;8.50;99.90;;;;;;8394835;28;20044;-76
2024/03/20 06:47:51;;;;;;;7.75;4.95;;;8.50;99.90;;;;;;8393426;28;20126;-76
2024/03/20 06:51:53;;;;;;;8.20;4.85;;;8.60;99.90;;;;;;8390928;28;20124;-76
2024/03/20 06:55:55;;;;;;;8.43;4.80;;;8.70;99.90;;;;;;8393505;28;20060;-76
2024/03/20 06:59:56;;;;;;;7.72;5.05;;;8.70;99.90;;;;;;8375171;28;20048;-76
2024/03/20 07:03:56;;;;;;;10.20;5.10;;;8.80;99.90;;;;;;8393343;28;20502;-76
2024/03/20 07:07:57;;;;;;;9.20;5.35;;;8.90;99.90;;;;;;8388646;28;20048;-76
2024/03/20 07:12:02;;;;;;;8.68;5.70;;;9.00;99.90;;;;;;8401398;28;20050;-76
2024/03/20 07:16:03;;;;;;;9.45;4.90;;;9.20;99.90;;;;;;8401741;28;20142;-76
2024/03/20 07:20:09;;;;;;;8.90;5.43;;;9.40;99.90;;;;;;8408503;28;20072;-76
2024/03/20 07:24:10;;;;;;;;;;;9.60;99.90;;;;;;8409211;28;20077;-76
2024/03/20 07:28:12;;;;;;;;;;;9.80;99.90;;;;;;8409121;28;20326;-76
2024/03/20 07:32:13;;;;;;;;;;;10.00;99.90;;;;;;8401510;28;20029;-76
2024/03/20 07:36:14;;;;;;;;;;;10.20;99.90;;;;;;8413074;28;20006;-76
2024/03/20 07:40:15;;;;;;;;;;;10.40;99.90;;;;;;8408906;28;19920;-76
2024/03/20 07:44:16;;;;;;;;;;;10.60;99.90;;;;;;8391879;28;19946;-76
2024/03/20 07:48:17;;;;;;;;;;;10.70;99.90;;;;;;8402116;28;20031;-76
2024/03/20 07:52:18;;;;;;;;;;;10.90;99.90;;;;;;8396955;28;20371;-76
2024/03/20 07:56:19;;;;;;;;;;;11.00;99.90;;;;;;8411245;28;20066;-76
2024/03/20 08:00:28;;;;;;;;;;;11.30;99.90;;;;;;8410890;28;19977;-76
2024/03/20 08:04:28;;;;;;;;;;;11.40;99.90;;;;;;8413487;28;20282;-76
2024/03/20 08:08:29;;;;;;;;;;;11.60;99.90;;;;;;8399016;28;20763;-76
2024/03/20 08:12:31;;;;;;;;;;;11.70;99.90;;;;;;8410269;28;19927;-76
2024/03/20 08:16:32;;;;;;;;;;;11.90;99.90;;;;;;8411764;28;20006;-76
2024/03/20 08:20:34;;;;;;;;;;;12.10;99.90;;;;;;8407723;28;20093;-76
2024/03/20 08:24:35;;;;;;;;;;;12.30;99.90;;;;;;8399937;28;19924;-76
2024/03/20 08:28:36;;;;;;;;;;;12.50;99.90;;;;;;8405519;28;19920;-76
2024/03/20 08:32:37;;;;;;;;;;;12.60;99.90;;;;;;8408701;28;19920;-76
2024/03/20 08:36:38;;;;;;;;;;;12.80;99.90;;;;;;8402527;28;19928;-76
2024/03/20 08:40:38;;;;;;;;;;;12.90;99.90;;;;;;8401477;28;19942;-76
2024/03/20 08:44:40;;;;;;;;;;;13.10;99.90;;;;;;8414926;28;19919;-76
2024/03/20 08:48:41;;;;;;;;;;;13.20;99.90;;;;;;8390805;28;20014;-76
2024/03/20 08:52:42;;;;;;;;;;;13.30;99.90;;;;;;8411016;28;19955;-76
2024/03/20 08:56:43;;;;;;;;;;;13.40;99.90;;;;;;8407587;28;19920;-76
2024/03/20 09:00:45;;;;;;;;;;;13.50;99.90;;;;;;8400403;28;19919;-76
2024/03/20 09:04:46;;;;;;;;;;;13.60;99.90;;;;;;8400552;28;19972;-76
2024/03/20 09:08:47;;;;;;;;;;;13.70;99.90;;;;;;8384278;28;19919;-76
2024/03/20 09:12:48;;;;;;;;;;;13.80;99.90;;;;;;8426742;28;20264;-76
2024/03/20 09:16:50;;;;;;;;;;;14.00;99.90;;;;;;8405804;28;19920;-76
2024/03/20 09:20:51;;;;;;;;;;;14.20;99.90;;;;;;8405835;28;20397;-76
2024/03/20 09:24:52;;;;;;;;;;;14.40;99.90;;;;;;8408264;28;20010;-76
2024/03/20 09:28:53;;;;;;;;;;;14.60;99.90;;;;;;8411545;28;20004;-76
2024/03/20 09:32:53;;;;;;;;;;;14.80;99.90;;;;;;8407719;28;19959;-76
2024/03/20 09:36:56;;;;;;;;;;;14.90;99.90;;;;;;8406405;28;20477;-76
2024/03/20 09:40:57;;;;;;;;;;;15.10;99.90;;;;;;8421675;28;20002;-76
2024/03/20 09:44:59;;;;;;;;;;;15.20;99.90;;;;;;8411935;28;20002;-76
2024/03/20 09:48:59;;;;;;;;;;;15.30;99.90;;;;;;8401508;28;20033;-76
2024/03/20 09:53:00;;;;;;;;;;;15.40;99.90;;;;;;8403093;28;19940;-76
2024/03/20 09:57:01;;;;;;;;;;;15.50;99.90;;;;;;8405768;28;20445;-76
2024/03/20 10:01:03;;;;;;;;;;;15.70;99.90;;;;;;8403240;28;20390;-76
2024/03/20 10:05:06;;;;;;;;;;;15.90;99.90;;;;;;8391175;28;19920;-76
2024/03/20 10:09:08;;;;;;;;;;;16.00;99.90;;;;;;8392246;28;20080;-76
2024/03/20 10:13:12;;;;;;;;;;;16.20;99.90;;;;;;8414533;28;20431;-76
2024/03/20 10:17:14;;;;;;;;;;;16.50;99.90;;;;;;8408674;28;20014;-77
2024/03/20 10:21:15;;;;;;;;;;;16.80;99.90;;;;;;8403931;28;20282;-76
2024/03/20 10:25:16;;;;;;;;;;;17.10;99.90;;;;;;8404997;28;19989;-76
2024/03/20 10:29:19;;;;;;;;;;;17.30;99.90;;;;;;8408530;28;20338;-76
2024/03/20 10:33:19;;;;;;;;;;;17.60;99.90;;;;;;8408229;28;20011;-77
2024/03/20 10:37:21;;;;;;;;;;;17.80;99.90;;;;;;8410251;28;19963;-76
2024/03/20 10:41:22;;;;;;;;;;;17.90;99.90;;;;;;8406256;28;20441;-76
2024/03/20 10:45:23;;;;;;;;;;;18.00;99.90;;;;;;8409857;28;20339;-76
2024/03/20 10:49:24;;;;;;;;;;;18.10;99.90;;;;;;8391857;28;19955;-77
2024/03/20 10:53:25;;;;;;;;;;;18.10;99.90;;;;;;8405988;28;20007;-77
2024/03/20 10:57:27;;;;;;;;;;;18.20;99.90;;;;;;8402260;28;20010;-77
2024/03/20 11:01:28;;;;;;;;;;;18.30;99.90;;;;;;8373489;28;20003;-77
2024/03/20 11:05:35;;;;;;;;;;;18.40;99.90;;;;;;8385146;28;20034;-76
2024/03/20 11:09:36;;;;;;;;;;;18.40;99.90;;;;;;8397012;28;19920;-76
2024/03/20 11:13:38;;;;;;;;;;;18.60;99.90;;;;;;8397869;28;20019;-76
2024/03/20 11:17:39;;;;;;;;;;;18.70;99.90;;;;;;8389617;28;20015;-77
2024/03/20 11:21:40;;;;;;;;;;;18.70;99.90;;;;;;8401360;28;19928;-77
2024/03/20 11:25:40;;;;;;;;;;;18.80;99.90;;;;;;8392238;28;19968;-77
2024/03/20 11:29:41;;;;;;;;;;;18.80;99.90;;;;;;8401889;28;20010;-76
2024/03/20 11:33:43;;;;;;;;;;;18.70;99.90;;;;;;8399333;28;20303;-77
2024/03/20 11:37:43;;;;;;;;;;;18.70;99.90;;;;;;8373012;28;19920;-77
2024/03/20 11:41:45;;;;;;;13.77;8.73;;;19.00;99.90;;;;;;8401995;28;20007;-77
2024/03/20 11:45:47;;;;;;;10.80;7.73;;;19.40;99.90;;;;;;8398029;28;20536;-77
2024/03/20 11:49:48;;;;;;;;;;;19.60;99.90;;;;;;8385783;28;19920;-77
2024/03/20 11:53:49;;;;;;;;;;;19.90;99.90;;;;;;8400255;28;20050;-77
2024/03/20 11:57:51;;;;;;;;;;;20.10;99.90;;;;;;8403557;28;19924;-76
2024/03/20 12:01:55;;;;;;;;;;;20.30;99.90;;;;;;8410716;28;20427;-77
2024/03/20 12:06:12;;;;;;;;;;;20.40;99.90;;;;;;8407523;28;19920;-77
2024/03/20 12:10:30;;;;;;;;;;;20.40;99.90;;;;;;8410308;28;20069;-77
2024/03/20 12:14:31;;;;;;;;;;;20.30;99.90;;;;;;8406384;28;20002;-77
2024/03/20 12:18:32;;;;;;;;;;;20.20;99.90;;;;;;8392459;28;20002;-77
2024/03/20 12:22:32;;;;;;;;;;;20.10;99.90;;;;;;8405622;28;19927;-74
2024/03/20 12:26:35;;;;;;;;;;;20.20;99.90;;;;;;8383899;28;19969;-74
2024/03/20 12:30:38;;;;;;;;;;;20.30;99.90;;;;;;8405677;28;21074;-74
2024/03/20 12:34:39;;;;;;;;;;;20.60;99.90;;;;;;8397794;28;20029;-74
2024/03/20 12:38:42;;;;;;;;;;;20.70;99.90;;;;;;8380531;28;19924;-75
2024/03/20 12:42:42;;;;;;;;;;;20.60;99.90;;;;;;8406216;28;20065;-75
2024/03/20 12:46:43;;;;;;;;;;;20.80;99.90;;;;;;8386274;28;19924;-74
2024/03/20 12:50:44;;;;;;;;;;;21.20;99.90;;;;;;8405447;28;19967;-74
2024/03/20 12:54:46;;;;;;;;;;;21.50;99.90;;;;;;8396375;28;20423;-74
2024/03/20 12:58:47;;;;;;;;;;;21.40;99.90;;;;;;8392950;28;20424;-74
2024/03/20 13:02:48;;;;;;;;;;;21.30;99.90;;;;;;8402845;28;20272;-74
2024/03/20 13:06:49;;;;;;;;;;;21.30;99.90;;;;;;8397581;28;19927;-74
2024/03/20 13:10:52;;;;;;;;;;;21.20;99.90;;;;;;8400078;28;19967;-74
2024/03/20 13:14:53;;;;;;;;;;;21.00;99.90;;;;;;8410893;28;20551;-74
2024/03/20 13:18:56;;;;;;;;;;;20.90;99.90;;;;;;8381255;28;19920;-74
2024/03/20 13:22:59;;;;;;;;;;;20.60;99.90;;;;;;8384317;28;19930;-74
2024/03/20 13:27:00;;;;;;;;;;;20.30;99.90;;;;;;8405494;28;20426;-74
2024/03/20 13:31:04;;;;;;;;;;;20.30;99.90;;;;;;8410274;28;20007;-74
2024/03/20 13:35:08;;;;;;;;;;;20.30;99.90;;;;;;8398113;28;20011;-74
2024/03/20 13:39:18;;;;;;;;;;;20.20;99.90;;;;;;8384895;28;20034;-73
2024/03/20 13:43:28;;;;;;;;;;;20.40;99.90;;;;;;8391844;28;19924;-74
2024/03/20 13:52:33;;;;;;;;;;;20.40;99.90;;;;;;8420113;28;20386;-74
2024/03/20 13:56:37;;;;;;;;;;;20.20;99.90;;;;;;8402743;28;19923;-75
2024/03/20 14:00:38;;;;;;;;;;;20.40;99.90;;;;;;8389597;28;20007;-74
2024/03/20 14:04:39;;;;;;;;;;;20.50;99.90;;;;;;8388390;28;20397;-74
2024/03/20 14:08:41;;;;;;;;;;;20.60;99.90;;;;;;8377149;28;19930;-74
2024/03/20 14:12:42;;;;;;;;;;;20.80;99.90;;;;;;8403823;28;19919;-74
2024/03/20 14:16:44;;;;;;;;;;;20.80;99.90;;;;;;8390128;28;20002;-74
2024/03/20 14:20:45;;;;;;;;;;;21.00;99.90;;;;;;8384744;28;20014;-74
2024/03/20 14:24:45;;;;;;;;;;;21.50;99.90;;;;;;8403748;28;19920;-74
2024/03/20 14:28:59;;;;;;;;;;;21.90;99.90;;;;;;8380119;28;19951;-74
2024/03/20 14:33:00;;;;;;;;;;;22.10;99.90;;;;;;8417358;28;19999;-74
2024/03/20 14:37:01;;;;;;;;;;;22.60;99.90;;;;;;8398805;28;19927;-74
2024/03/20 14:41:03;;;;;;;;;;;22.90;99.90;;;;;;8402051;28;20006;-74
2024/03/20 14:45:05;;;;;;;;;;;23.00;99.90;;;;;;8393395;28;19920;-74
2024/03/20 14:49:07;;;;;;;;;;;23.10;99.90;;;;;;8395576;28;20002;-74
2024/03/20 14:53:08;;;;;;;;;;;22.80;99.90;;;;;;8403377;28;20014;-74
2024/03/20 14:57:09;;;;;;;;;;;22.70;99.90;;;;;;8395233;28;20024;-74
2024/03/20 15:01:14;;;;;;;;;;;22.60;99.90;;;;;;8391308;28;20049;-74
2024/03/20 15:05:15;;;;;;;;;;;22.60;99.90;;;;;;8403027;28;19931;-74
2024/03/20 15:09:16;;;;;;;;;;;22.30;99.90;;;;;;8387331;28;20433;-74
2024/03/20 15:13:17;;;;;;;;;;;21.80;99.90;;;;;;8385307;28;20448;-74
2024/03/20 15:17:18;;;;;;;;;;;21.40;99.90;;;;;;8388422;28;20003;-74
2024/03/20 15:21:26;;;;;;;;;;;21.10;99.90;;;;;;8401484;28;20006;-74
2024/03/20 15:25:27;;;;;;;;;;;21.00;99.90;;;;;;8378959;28;19972;-74
2024/03/20 15:29:30;;;;;;;;;;;21.10;99.90;;;;;;8401695;28;19930;-75
2024/03/20 15:33:31;;;;;;;;;;;21.30;99.90;;;;;;8404179;28;20010;-74
2024/03/20 15:37:32;;;;;;;;;;;21.80;99.90;;;;;;8393159;28;19919;-75
2024/03/20 15:41:32;;;;;;;;;;;22.30;99.90;;;;;;8394821;28;19928;-74
2024/03/20 15:45:33;;;;;;;;;;;22.50;99.90;;;;;;8379952;28;19920;-74
2024/03/20 15:49:34;;;;;;;;;;;22.50;99.90;;;;;;8409655;28;20409;-74
2024/03/20 15:53:35;;;;;;;;;;;22.30;99.90;;;;;;8404661;28;19919;-74
2024/03/20 15:57:36;;;;;;;;;;;21.90;99.90;;;;;;8400594;28;20379;-74
2024/03/20 16:01:37;;;;;;;;;;;21.60;99.90;;;;;;8406162;28;19938;-74
2024/03/20 16:05:38;;;;;;;;;;;21.30;99.90;;;;;;8407335;28;19934;-74
2024/03/20 16:09:40;;;;;;;;;;;21.00;99.90;;;;;;8406622;28;19920;-74
2024/03/20 16:13:44;;;;;;;;;;;20.90;99.90;;;;;;8388307;28;19928;-74
2024/03/20 16:17:46;;;;;;;;;;;20.70;99.90;;;;;;8388251;28;20011;-74
2024/03/20 16:21:47;;;;;;;;;;;20.50;99.90;;;;;;8390533;28;19998;-74
2024/03/20 16:25:48;;;;;;;;;;;20.40;99.90;;;;;;8400754;28;21549;-74
2024/03/20 16:29:49;;;;;;;;;;;20.20;99.90;;;;;;8405077;28;20031;-74
2024/03/20 16:33:50;;;;;;;;;;;20.00;99.90;;;;;;8414396;28;20015;-74
2024/03/20 16:37:51;;;;;;;;;;;19.90;99.90;;;;;;8404116;28;19920;-74
2024/03/20 16:41:52;;;;;;;;;;;19.80;99.90;;;;;;8376455;28;20474;-74
2024/03/20 16:45:56;;;;;;;;;;;19.80;99.90;;;;;;8374854;28;20339;-74
2024/03/20 16:49:56;;;;;;;;;;;19.70;99.90;;;;;;8377574;28;19920;-74
2024/03/20 16:53:58;;;;;;;;;;;19.60;99.90;;;;;;8361055;28;19931;-74
2024/03/20 16:57:58;;;;;;;;;;;19.60;99.90;;;;;;8390439;28;19984;-74
2024/03/20 17:02:05;;;;;;;;;;;19.60;99.90;;;;;;8377371;28;19920;-74
2024/03/20 17:06:06;;;;;;;;;;;19.50;99.90;;;;;;8364784;28;20163;-74
2024/03/20 17:10:08;;;;;;;;;;;19.50;99.90;;;;;;8364979;28;19973;-74
2024/03/20 17:14:09;;;;;;;;;;;19.40;99.90;;;;;;8388748;28;19920;-74
2024/03/20 17:18:10;;;;;;;;;;;19.40;99.90;;;;;;8399487;28;19920;-74
2024/03/20 17:22:26;;;;;;;;;;;19.40;99.90;;;;;;8401441;28;20018;-74
2024/03/20 17:26:27;;;;;;;;;;;19.30;99.90;;;;;;8379437;28;19931;-74
2024/03/20 17:30:28;;;;;;;;;;;19.30;99.90;;;;;;8375517;28;20007;-74
2024/03/20 17:34:29;;;;;;;;;;;19.20;99.90;;;;;;8380975;28;19928;-74
2024/03/20 17:38:30;;;;;;;;;;;19.10;99.90;;;;;;8372260;28;19924;-74
2024/03/20 17:42:34;;;;;;;;;;;18.90;99.90;;;;;;8381338;28;19950;-74
2024/03/20 17:46:35;;;;;;;;;;;18.80;99.90;;;;;;8377483;28;19930;-74
2024/03/20 17:50:36;;;;;;;;;;;18.60;99.90;;;;;;8384934;28;19969;-74
2024/03/20 17:54:36;;;;;;;;;;;18.50;99.90;;;;;;8376257;28;20009;-74
2024/03/20 17:58:40;;;;;;;;;;;18.30;99.90;;;;;;8392517;28;19920;-74
2024/03/20 18:02:42;;;;;;;;;;;18.20;99.90;;;;;;8390623;28;19924;-74
2024/03/20 18:06:43;;;;;;;;;;;18.10;99.90;;;;;;8372876;28;20781;-74
2024/03/20 18:10:44;;;;;;;;;;;18.00;99.90;;;;;;8392569;28;19956;-74
2024/03/20 18:14:45;;;;;;;;;;;17.80;99.90;;;;;;8377096;28;20338;-74
2024/03/20 18:18:46;;;;;;;;;;;17.70;99.90;;;;;;8379376;28;20291;-74
2024/03/20 18:22:48;;;;;;;;;;;17.50;99.90;;;;;;8367965;28;19924;-74
2024/03/20 18:26:49;;;;;;;;;;;17.40;99.90;;;;;;8362164;28;20416;-74
2024/03/20 18:30:50;;;;;;;;;;;17.20;99.90;;;;;;8364041;28;20409;-74
2024/03/20 18:34:51;;;;;;;;;;;17.00;99.90;;;;;;8384224;28;19924;-74
2024/03/20 18:38:51;;;;;;;;;;;16.90;99.90;;;;;;8365724;28;19924;-74
2024/03/20 18:42:52;;;;;;;;;;;16.70;99.90;;;;;;8379974;28;20057;-74
2024/03/20 18:46:53;;;;;;;;;;;16.50;99.90;;;;;;8381666;28;20002;-74
2024/03/20 18:50:55;;;;;;;;;;;16.30;99.90;;;;;;8380014;28;19950;-74
2024/03/20 18:55:01;;;;;;;;;;;16.20;99.90;;;;;;8388910;28;20006;-74
2024/03/20 18:59:02;;;;;;;;;;;16.10;99.90;;;;;;8369027;28;19977;-74
2024/03/20 19:03:02;;;;;;;;;;;16.00;99.90;;;;;;8370312;28;19930;-74
2024/03/20 19:07:03;;;;;;;;;;;15.90;99.90;;;;;;8383013;28;19930;-74
2024/03/20 19:11:04;;;;;;;;;;;15.80;99.90;;;;;;8388612;28;20026;-74
2024/03/20 19:15:06;;;;;;;;;;;15.80;99.90;;;;;;8414789;28;19974;-74
2024/03/20 19:19:07;;;;;;;;;;;15.70;99.90;;;;;;8379073;28;19924;-74
2024/03/20 19:23:08;;;;;;;;;;;15.80;99.90;;;;;;8408705;28;19974;-74
2024/03/20 19:27:09;;;;;;;;;;;15.70;99.90;;;;;;8388608;28;19924;-74
2024/03/20 19:31:09;;;;;;;;;;;15.70;99.90;;;;;;8384686;28;20280;-73
2024/03/20 19:35:11;;;;;;;;;;;15.60;99.90;;;;;;8422702;28;20405;-74
2024/03/20 19:39:13;;;;;;;;;;;15.60;99.90;;;;;;8403871;28;20302;-74
2024/03/20 19:43:21;;;;;;;;;;;15.60;99.90;;;;;;8391752;28;20304;-74
2024/03/20 19:47:22;;;;;;;;;;;15.60;99.90;;;;;;8383103;28;19921;-74
2024/03/20 19:51:23;;;;;;;;;;;15.60;99.90;;;;;;8382716;28;19940;-74
2024/03/20 19:55:23;;;;;;;;;;;15.60;99.90;;;;;;8367229;28;19928;-74
2024/03/20 19:59:24;;;;;;;;;;;15.50;99.90;;;;;;8383162;28;20402;-74
2024/03/20 20:03:26;;;;;;;;;;;15.50;99.90;;;;;;8385872;28;20441;-74
2024/03/20 20:07:28;;;;;;;;;;;15.50;99.90;;;;;;8396385;28;20229;-74
2024/03/20 20:11:28;;;;;;;;;;;15.40;99.90;;;;;;8380555;28;19920;-74
2024/03/20 20:15:29;;;;;;;;;;;15.30;99.90;;;;;;8388159;28;19971;-74
2024/03/20 20:19:30;;;;;;;;;;;15.30;99.90;;;;;;8383749;28;19920;-73
2024/03/20 20:23:31;;;;;;;;;;;15.20;99.90;;;;;;8370445;28;19986;-74
2024/03/20 20:27:32;;;;;;;;;;;15.10;99.90;;;;;;8383078;28;19932;-73
2024/03/20 20:31:33;;;;;;;;;;;15.10;99.90;;;;;;8402928;28;19927;-74
2024/03/20 20:35:33;;;;;;;;;;;15.00;99.90;;;;;;8375629;28;19964;-73
2024/03/20 20:39:34;;;;;;;;;;;14.90;99.90;;;;;;8384596;28;20014;-74
2024/03/20 20:43:35;;;;;;;;;;;14.90;99.90;;;;;;8384105;28;19997;-74
2024/03/20 20:47:37;;;;;;;;;;;14.80;99.90;;;;;;8379895;28;20413;-74
2024/03/20 20:51:38;;;;;;;;;;;14.70;99.90;;;;;;8386576;28;19945;-73
2024/03/20 20:55:40;;;;;;;;;;;14.70;99.90;;;;;;8373890;28;19920;-74
2024/03/20 20:59:41;;;;;;;;;;;14.60;99.90;;;;;;8388649;28;19927;-73
2024/03/20 21:21:01;;;;;;;;;;;14.40;99.90;;;;;;8393285;28;19964;-74
2024/03/20 21:25:03;;;;;;;;;;;14.40;99.90;;;;;;8384577;28;19924;-73
2024/03/20 21:29:04;;;;;;;;;;;14.30;99.90;;;;;;8365372;28;20357;-73
2024/03/20 21:33:04;;;;;;;;;;;14.30;99.90;;;;;;8379417;28;19990;-74
2024/03/20 21:37:08;;;;;;;;;;;14.20;99.90;;;;;;8380412;28;20426;-74
2024/03/20 21:41:09;;;;;;;;;;;14.20;99.90;;;;;;8391797;28;20348;-73
2024/03/20 21:45:10;;;;;;;;;;;14.10;99.90;;;;;;8380958;28;20283;-73
2024/03/20 21:49:11;;;;;;;;;;;14.10;99.90;;;;;;8375200;28;19921;-74
2024/03/20 21:53:11;;;;;;;;;;;14.10;99.90;;;;;;8361984;28;20015;-76
2024/03/20 21:57:12;;;;;;;;;;;14.10;99.90;;;;;;8377275;28;19928;-76
2024/03/20 22:01:15;;;;;;;;;;;14.10;99.90;;;;;;8383693;28;20030;-76
2024/03/20 22:05:15;;;;;;;;;;;14.10;99.90;;;;;;8362008;28;19928;-76
2024/03/20 22:09:16;;;;;;;;;;;14.00;99.90;;;;;;8375652;28;19927;-76
2024/03/20 22:13:17;;;;;;;;;;;14.00;99.90;;;;;;8365069;28;19924;-76
2024/03/20 22:17:18;;;;;;;;;;;14.00;99.90;;;;;;8355282;28;19950;-76
2024/03/20 22:21:19;;;;;;;;;;;13.90;99.90;;;;;;8378807;28;19920;-76
2024/03/20 22:25:21;;;;;;;;;;;13.90;99.90;;;;;;8375659;28;19924;-76
2024/03/20 22:29:21;;;;;;;;;;;13.80;99.90;;;;;;8377071;28;19946;-76
2024/03/20 22:33:22;;;;;;;;;;;13.70;99.90;;;;;;8389001;28;19919;-76
2024/03/20 22:37:23;;;;;;;;;;;13.60;99.90;;;;;;8378191;28;19931;-76
2024/03/20 22:41:24;;;;;;;;;;;13.60;99.90;;;;;;8379326;28;19975;-76
2024/03/20 22:45:24;;;;;;;;;;;13.50;99.90;;;;;;8373635;28;19920;-76
2024/03/20 22:49:25;;;;;;;;;;;13.40;99.90;;;;;;8395155;28;19920;-76
2024/03/20 22:53:26;;;;;;;;;;;13.40;99.90;;;;;;8376116;28;19927;-76
2024/03/20 22:57:27;;;;;;;;;;;13.30;99.90;;;;;;8406025;28;20024;-76
2024/03/20 23:01:28;;;;;;;;;;;13.20;99.90;;;;;;8380699;28;19932;-76
2024/03/20 23:05:29;;;;;;;;;;;13.20;99.90;;;;;;8384225;28;20624;-76
2024/03/20 23:09:30;;;;;;;;;;;13.10;99.90;;;;;;8368004;28;20329;-76
2024/03/20 23:13:30;;;;;;;;;;;13.10;99.90;;;;;;8379180;28;19959;-76
2024/03/20 23:17:31;;;;;;;;;;;13.00;99.90;;;;;;8392919;28;19920;-76
2024/03/20 23:21:32;;;;;;;;;;;12.80;99.90;;;;;;8379552;28;20009;-76